Time;durP1;ratioP1;P1;durP2;ratioP2;P2;SDS_P1;SDS_P2;PMS_P1;PMS_P2;Temp;Humidity;BMP_temperature;BMP_pressure;BME280_temperature;BME280_humidity;BME280_pressure;Samples;Min_cycle;Max_cycle;Signal;HPM_P1;HPM_P2
2021/12/23 00:01:51;;;;;;;194.43;79.03;;;;;;;-5.28;100.00;99347.75;4972797;28;20069;-58
2021/12/23 00:04:17;;;;;;;190.53;78.60;;;;;;;-5.32;100.00;99345.00;4973390;28;20626;-58
2021/12/23 00:06:44;;;;;;;181.30;77.83;;;;;;;-5.34;100.00;99339.03;4973961;28;20053;-58
2021/12/23 00:09:10;;;;;;;189.67;79.83;;;;;;;-5.36;100.00;99338.97;4971267;28;20027;-57
2021/12/23 00:11:36;;;;;;;194.33;78.37;;;;;;;-5.35;100.00;99337.34;4971336;28;20440;-57
2021/12/23 00:14:08;;;;;;;188.30;78.57;;;;;;;-5.40;100.00;99337.09;4973656;28;20023;-57
2021/12/23 00:16:44;;;;;;;189.43;77.40;;;;;;;-5.22;100.00;99339.72;4972878;28;20523;-56
2021/12/23 00:19:22;;;;;;;194.13;77.77;;;;;;;-5.32;100.00;99325.88;4974473;28;20278;-55
2021/12/23 00:24:33;;;;;;;184.50;75.72;;;;;;;-5.44;100.00;99310.22;4970412;28;20343;-56
2021/12/23 00:26:58;;;;;;;186.27;75.47;;;;;;;-5.43;100.00;99308.59;4969182;28;20051;-56
2021/12/23 00:29:24;;;;;;;190.77;76.67;;;;;;;-5.37;100.00;99308.91;4970188;28;20033;-57
2021/12/23 00:31:49;;;;;;;187.33;74.37;;;;;;;-5.36;100.00;99306.50;4973697;28;20073;-56
2021/12/23 00:34:15;;;;;;;181.43;75.00;;;;;;;-5.40;100.00;99294.63;4972753;28;20026;-59
2021/12/23 00:36:43;;;;;;;175.93;75.60;;;;;;;-5.39;100.00;99311.34;4971437;28;20030;-59
2021/12/23 00:39:10;;;;;;;187.03;74.93;;;;;;;-5.40;100.00;99317.09;4970839;28;20594;-58
2021/12/23 00:41:35;;;;;;;192.23;77.27;;;;;;;-5.43;100.00;99296.09;4973896;28;20294;-57
2021/12/23 00:44:01;;;;;;;179.03;75.37;;;;;;;-5.43;100.00;99298.59;4973603;28;20258;-57
2021/12/23 00:46:27;;;;;;;180.33;75.17;;;;;;;-5.42;100.00;99295.31;4971363;28;20469;-59
2021/12/23 00:48:52;;;;;;;179.77;74.93;;;;;;;-5.41;100.00;99292.91;4969407;28;20476;-57
2021/12/23 00:51:19;;;;;;;178.10;72.00;;;;;;;-5.44;100.00;99289.38;4974489;28;20026;-58
2021/12/23 00:53:48;;;;;;;180.53;72.70;;;;;;;-5.47;100.00;99285.06;4973352;28;20823;-58
2021/12/23 00:56:14;;;;;;;180.47;75.77;;;;;;;-5.53;100.00;99293.09;4970473;28;20387;-56
2021/12/23 00:58:40;;;;;;;173.23;74.23;;;;;;;-5.53;100.00;99294.75;4969932;28;20344;-58
2021/12/23 01:01:06;;;;;;;163.37;71.53;;;;;;;-5.60;100.00;99291.03;4974223;28;20035;-58
2021/12/23 01:03:31;;;;;;;174.20;73.70;;;;;;;-5.61;100.00;99290.97;4973474;28;20750;-57
2021/12/23 01:05:57;;;;;;;171.37;73.33;;;;;;;-5.58;100.00;99299.47;4970628;28;20077;-56
2021/12/23 01:08:23;;;;;;;172.20;73.07;;;;;;;-5.59;100.00;99297.75;4970566;28;20081;-56
2021/12/23 01:10:53;;;;;;;184.33;78.00;;;;;;;-5.58;100.00;99298.63;4974746;28;20039;-57
2021/12/23 01:13:19;;;;;;;164.67;72.60;;;;;;;-5.60;100.00;99302.69;4971280;28;20841;-58
2021/12/23 01:16:03;;;;;;;172.67;72.13;;;;;;;-5.59;100.00;99297.75;4970392;28;20320;-59
2021/12/23 01:18:32;;;;;;;180.53;72.13;;;;;;;-5.57;100.00;99293.72;4975254;28;20037;-58
2021/12/23 01:21:17;;;;;;;178.00;74.97;;;;;;;-5.56;100.00;99285.44;4972435;28;20270;-58
2021/12/23 01:23:49;;;;;;;179.98;73.72;;;;;;;-5.55;100.00;99293.78;4972571;28;20270;-58
2021/12/23 01:26:21;;;;;;;189.50;76.00;;;;;;;-5.58;100.00;99281.13;4969218;28;20120;-58
2021/12/23 01:28:49;;;;;;;172.73;71.07;;;;;;;-5.59;100.00;99282.78;4971528;28;20673;-58
2021/12/23 01:31:15;;;;;;;179.33;71.43;;;;;;;-5.61;100.00;99286.84;4971276;28;20269;-57
2021/12/23 01:33:41;;;;;;;171.23;69.00;;;;;;;-5.65;100.00;99281.59;4961422;28;20869;-57
2021/12/23 01:36:06;;;;;;;178.37;72.10;;;;;;;-5.70;100.00;99276.34;4975588;28;20041;-58
2021/12/23 01:38:32;;;;;;;176.77;72.57;;;;;;;-5.69;100.00;99278.06;4979364;28;20046;-57
2021/12/23 01:40:57;;;;;;;170.27;69.53;;;;;;;-5.72;100.00;99272.03;4978586;28;20033;-58
2021/12/23 01:43:22;;;;;;;175.40;70.87;;;;;;;-5.75;100.00;99270.22;4974249;28;20066;-58
2021/12/23 01:45:49;;;;;;;179.77;73.23;;;;;;;-5.71;100.00;99269.63;4961237;28;20130;-59
2021/12/23 01:48:17;;;;;;;173.57;73.57;;;;;;;-5.73;100.00;99260.34;4976111;28;20038;-59
2021/12/23 01:50:43;;;;;;;171.83;72.40;;;;;;;-5.79;100.00;99258.34;4976806;28;20273;-59
2021/12/23 01:53:10;;;;;;;183.67;75.37;;;;;;;-5.77;100.00;99256.78;4973642;28;20320;-58
2021/12/23 01:55:37;;;;;;;186.27;73.47;;;;;;;-5.76;100.00;99250.16;4972756;28;20039;-58
2021/12/23 01:58:05;;;;;;;185.73;73.53;;;;;;;-5.79;100.00;99258.34;4980034;28;20277;-58
2021/12/23 02:00:33;;;;;;;182.67;72.73;;;;;;;-5.83;100.00;99248.13;4978720;28;20270;-57
2021/12/23 02:03:00;;;;;;;177.53;73.63;;;;;;;-5.90;100.00;99246.09;4972182;28;20735;-58
2021/12/23 02:05:27;;;;;;;177.37;70.93;;;;;;;-5.86;100.00;99246.34;4976147;28;20323;-57
2021/12/23 02:07:53;;;;;;;180.13;71.80;;;;;;;-5.93;100.00;99239.28;4975767;28;20939;-58
2021/12/23 02:10:22;;;;;;;167.87;71.03;;;;;;;-5.90;100.00;99246.09;4975426;28;20266;-57
2021/12/23 02:12:49;;;;;;;175.53;72.67;;;;;;;-5.92;100.00;99240.16;4972638;28;20127;-59
2021/12/23 02:15:16;;;;;;;174.97;71.13;;;;;;;-5.96;100.00;99231.66;4973951;28;20261;-59
2021/12/23 02:17:42;;;;;;;164.57;68.17;;;;;;;-5.95;100.00;99225.88;4977565;28;20332;-57
2021/12/23 02:20:10;;;;;;;167.77;69.80;;;;;;;-5.96;100.00;99225.78;4975039;28;21207;-58
2021/12/23 02:22:36;;;;;;;164.17;68.80;;;;;;;-5.99;100.00;99228.13;4972379;28;21193;-58
2021/12/23 02:25:03;;;;;;;175.10;69.37;;;;;;;-6.03;100.00;99224.63;4974155;28;20278;-58
2021/12/23 02:27:29;;;;;;;168.03;68.73;;;;;;;-6.05;100.00;99218.66;4973293;28;20061;-58
2021/12/23 02:29:54;;;;;;;164.37;68.70;;;;;;;-6.04;100.00;99223.75;4973652;28;20262;-58
2021/12/23 02:32:20;;;;;;;168.17;71.17;;;;;;;-6.09;100.00;99211.78;4973984;28;20037;-58
2021/12/23 02:34:45;;;;;;;162.17;67.37;;;;;;;-6.13;100.00;99208.25;4975204;28;20130;-59
2021/12/23 02:37:11;;;;;;;166.03;68.20;;;;;;;-6.16;100.00;99213.09;4973957;28;20046;-58
2021/12/23 02:39:36;;;;;;;162.83;68.50;;;;;;;-6.16;100.00;99204.75;4971830;28;20463;-59
2021/12/23 02:42:03;;;;;;;154.37;68.20;;;;;;;-6.17;100.00;99200.53;4975506;28;20049;-57
2021/12/23 02:44:29;;;;;;;161.53;68.47;;;;;;;-6.18;100.00;99192.19;4975917;28;20065;-60
2021/12/23 02:46:55;;;;;;;157.07;68.00;;;;;;;-6.14;100.00;99193.19;4972538;28;20265;-58
2021/12/23 02:49:20;;;;;;;155.13;67.90;;;;;;;-6.16;100.00;99197.25;4973565;28;20252;-59
2021/12/23 02:51:46;;;;;;;152.47;65.53;;;;;;;-6.15;100.00;99197.31;4972691;28;20026;-59
2021/12/23 02:54:11;;;;;;;156.60;67.57;;;;;;;-6.28;100.00;99184.13;4974212;28;20053;-59
2021/12/23 02:56:37;;;;;;;153.80;65.67;;;;;;;-6.32;100.00;99197.19;4965940;28;20046;-59
2021/12/23 02:59:03;;;;;;;153.40;68.10;;;;;;;-6.33;100.00;99195.47;4960716;28;20029;-59
2021/12/23 03:01:28;;;;;;;161.17;70.20;;;;;;;-6.35;100.00;99205.34;4971970;28;20125;-57
2021/12/23 03:03:54;;;;;;;161.47;67.03;;;;;;;-6.24;100.00;99198.47;4974703;28;20062;-58
2021/12/23 03:06:22;;;;;;;161.23;66.40;;;;;;;-6.15;100.00;99198.97;4977332;28;20034;-57
2021/12/23 03:08:52;;;;;;;149.57;66.63;;;;;;;-6.18;100.00;99197.16;4971478;28;20359;-58
2021/12/23 03:11:21;;;;;;;153.73;64.07;;;;;;;-6.22;100.00;99196.91;4971119;28;20356;-58
2021/12/23 03:13:48;;;;;;;152.13;66.13;;;;;;;-6.27;100.00;99190.81;4974702;28;20571;-58
2021/12/23 03:16:18;;;;;;;152.60;64.20;;;;;;;-6.33;100.00;99190.47;4973941;28;20270;-57
2021/12/23 03:18:43;;;;;;;158.20;69.00;;;;;;;-6.36;100.00;99186.16;4972914;28;20617;-57
2021/12/23 03:21:09;;;;;;;159.00;69.03;;;;;;;-6.39;100.00;99175.16;4973731;28;20270;-58
2021/12/23 03:23:34;;;;;;;151.30;64.13;;;;;;;-6.44;100.00;99181.53;4973909;28;20026;-58
2021/12/23 03:26:01;;;;;;;158.40;67.17;;;;;;;-6.51;100.00;99173.72;4957771;28;20035;-59
2021/12/23 03:28:27;;;;;;;159.73;70.03;;;;;;;-6.55;100.00;99174.31;4972595;28;20181;-60
2021/12/23 03:30:52;;;;;;;176.53;101.07;;;;;;;-6.57;100.00;99173.34;4977882;28;20634;-60
2021/12/23 03:33:18;;;;;;;164.73;100.03;;;;;;;-6.57;100.00;99170.88;4973765;28;20040;-58
2021/12/23 03:35:44;;;;;;;168.93;99.97;;;;;;;-6.65;100.00;99167.09;4973163;28;20022;-59
2021/12/23 03:38:10;;;;;;;170.57;102.57;;;;;;;-6.66;100.00;99172.00;4974189;28;20687;-59
2021/12/23 03:40:36;;;;;;;172.50;100.53;;;;;;;-6.67;100.00;99168.66;4976872;28;20308;-59
2021/12/23 03:43:02;;;;;;;152.93;67.20;;;;;;;-6.70;100.00;99168.44;4966596;28;20324;-57
2021/12/23 03:45:28;;;;;;;151.27;66.77;;;;;;;-6.71;100.00;99159.28;4972309;28;20049;-59
2021/12/23 03:47:54;;;;;;;145.97;65.93;;;;;;;-6.72;100.00;99159.19;4971798;28;20392;-59
2021/12/23 03:50:22;;;;;;;153.33;63.93;;;;;;;-6.71;100.00;99156.78;4972733;28;20277;-58
2021/12/23 03:52:48;;;;;;;150.70;65.77;;;;;;;-6.72;100.00;99160.03;4973998;28;20037;-59
2021/12/23 03:55:16;;;;;;;143.67;61.97;;;;;;;-6.69;100.00;99169.31;4973082;28;20270;-62
2021/12/23 03:57:41;;;;;;;152.27;66.40;;;;;;;-6.61;100.00;99168.97;4972700;28;20062;-56
2021/12/23 04:00:10;;;;;;;155.03;66.50;;;;;;;-6.62;100.00;99166.41;4976671;28;20284;-57
2021/12/23 04:02:36;;;;;;;151.57;63.27;;;;;;;-6.60;100.00;99163.22;4975785;28;20489;-58
2021/12/23 04:05:02;;;;;;;154.27;66.87;;;;;;;-6.56;100.00;99156.78;4971926;28;20301;-57
2021/12/23 04:07:28;;;;;;;158.53;64.87;;;;;;;-6.52;100.00;99159.53;4970852;28;20038;-57
2021/12/23 04:09:53;;;;;;;150.90;66.10;;;;;;;-6.47;100.00;99160.66;4964525;28;20273;-57
2021/12/23 04:12:19;;;;;;;77.27;53.97;;;;;;;-6.47;100.00;99147.31;4971985;28;20425;-59
2021/12/23 04:14:45;;;;;;;38.87;14.17;;;;;;;-6.46;100.00;99151.53;4973584;28;20035;-59
2021/12/23 04:17:11;;;;;;;47.10;32.60;;;;;;;-6.48;100.00;99148.06;4974017;28;20582;-57
2021/12/23 04:19:36;;;;;;;105.57;55.87;;;;;;;-6.52;100.00;99148.69;4974512;28;20053;-58
2021/12/23 04:22:02;;;;;;;101.20;54.30;;;;;;;-6.48;100.00;99145.59;4975461;28;20041;-59
2021/12/23 04:24:28;;;;;;;71.83;45.10;;;;;;;-6.47;100.00;99142.31;4969694;28;20049;-59
2021/12/23 04:26:53;;;;;;;75.30;46.47;;;;;;;-6.53;100.00;99139.47;4970816;28;20412;-59
2021/12/23 04:29:19;;;;;;;93.23;50.87;;;;;;;-6.55;100.00;99136.06;4972996;28;20058;-59
2021/12/23 04:31:45;;;;;;;68.87;43.33;;;;;;;-6.55;100.00;99139.41;4972966;28;20030;-59
2021/12/23 04:34:10;;;;;;;109.20;56.23;;;;;;;-6.48;100.00;99129.00;4971739;28;20022;-59
2021/12/23 04:36:36;;;;;;;114.67;59.00;;;;;;;-6.44;100.00;99129.16;4968955;28;20077;-60
2021/12/23 04:39:03;;;;;;;122.17;59.37;;;;;;;-6.51;100.00;99118.00;4972658;28;20113;-60
2021/12/23 04:41:31;;;;;;;110.60;56.07;;;;;;;-6.53;100.00;99124.50;4973458;28;20102;-59
2021/12/23 04:43:56;;;;;;;109.80;58.07;;;;;;;-6.55;100.00;99123.59;4969563;28;20276;-59
2021/12/23 04:46:22;;;;;;;99.20;52.20;;;;;;;-6.55;100.00;99121.09;4970622;28;20026;-59
2021/12/23 04:48:48;;;;;;;86.17;50.00;;;;;;;-6.60;100.00;99113.34;4974480;28;20038;-58
2021/12/23 04:51:15;;;;;;;31.40;11.67;;;;;;;-6.55;100.00;99118.59;4970711;28;20716;-60
2021/12/23 04:53:41;;;;;;;70.53;44.53;;;;;;;-6.57;100.00;99118.50;4968076;28;20049;-60
2021/12/23 04:56:07;;;;;;;76.13;45.73;;;;;;;-6.53;100.00;99117.03;4970192;28;20817;-59
2021/12/23 04:58:32;;;;;;;74.17;46.70;;;;;;;-6.50;100.00;99120.59;4976932;28;20026;-60
2021/12/23 05:00:58;;;;;;;81.80;48.10;;;;;;;-6.46;100.00;99119.13;4956570;28;20632;-59
2021/12/23 05:03:25;;;;;;;83.20;48.90;;;;;;;-6.38;100.00;99127.88;4967132;28;20031;-57
2021/12/23 05:05:51;;;;;;;77.10;46.83;;;;;;;-6.37;100.00;99119.63;4970928;28;20130;-59
2021/12/23 05:08:18;;;;;;;86.57;48.57;;;;;;;-6.24;100.00;99111.16;4970669;28;20037;-58
2021/12/23 05:10:44;;;;;;;97.23;54.80;;;;;;;-6.28;100.00;99107.63;4970272;28;20137;-59
2021/12/23 05:13:11;;;;;;;89.20;51.23;;;;;;;-6.15;100.00;99115.00;4968904;28;20117;-60
2021/12/23 05:15:36;;;;;;;82.53;48.40;;;;;;;-6.11;100.00;99099.41;4978601;28;20034;-57
2021/12/23 05:18:03;;;;;;;102.43;55.67;;;;;;;-6.03;100.00;99105.69;4962110;28;20023;-57
2021/12/23 05:20:29;;;;;;;95.93;53.37;;;;;;;-5.97;100.00;99110.13;4970415;28;20042;-58
2021/12/23 05:22:55;;;;;;;99.67;54.60;;;;;;;-5.87;100.00;99099.88;4959531;28;20041;-58
2021/12/23 05:25:21;;;;;;;103.23;53.73;;;;;;;-5.79;100.00;99097.72;4972249;28;20034;-54
2021/12/23 05:27:47;;;;;;;118.20;56.60;;;;;;;-5.75;100.00;99100.47;4973624;28;20035;-59
2021/12/23 05:30:15;;;;;;;105.73;56.23;;;;;;;-5.75;100.00;99097.09;4972355;28;20747;-58
2021/12/23 05:32:42;;;;;;;124.63;61.00;;;;;;;-5.77;100.00;99097.03;4954280;28;20030;-56
2021/12/23 05:35:10;;;;;;;115.13;55.57;;;;;;;-5.69;100.00;99098.31;4974891;28;20039;-58
2021/12/23 05:37:36;;;;;;;122.93;64.80;;;;;;;-5.70;100.00;99095.72;4980350;28;20034;-58
2021/12/23 05:40:05;;;;;;;116.40;56.87;;;;;;;-5.57;100.00;99093.94;4974166;28;20500;-59
2021/12/23 05:42:31;;;;;;;116.77;55.90;;;;;;;-5.48;100.00;99090.19;4972262;28;20033;-55
2021/12/23 05:44:56;;;;;;;122.77;57.27;;;;;;;-5.39;100.00;99083.16;4979562;28;20030;-58
2021/12/23 05:47:22;;;;;;;120.47;59.10;;;;;;;-5.39;100.00;99088.16;4980456;28;20030;-56
2021/12/23 05:49:47;;;;;;;118.40;56.07;;;;;;;-5.35;100.00;99082.53;4973497;28;20089;-58
2021/12/23 05:52:13;;;;;;;105.03;52.17;;;;;;;-5.33;100.00;99085.94;4976511;28;20033;-57
2021/12/23 05:54:38;;;;;;;147.13;66.60;;;;;;;-5.24;100.00;99083.91;4963304;28;20058;-58
2021/12/23 05:57:04;;;;;;;138.23;61.97;;;;;;;-5.19;100.00;99075.88;4964832;28;20485;-56
2021/12/23 05:59:31;;;;;;;143.37;63.73;;;;;;;-5.15;100.00;99080.25;4970185;28;20027;-57
2021/12/23 06:01:57;;;;;;;121.00;57.37;;;;;;;-5.08;100.00;99073.88;4975914;28;20100;-57
2021/12/23 06:04:23;;;;;;;107.90;53.70;;;;;;;-5.03;100.00;99074.97;4976564;28;20069;-57
2021/12/23 06:06:48;;;;;;;106.23;54.60;;;;;;;-4.97;100.00;99074.44;4975657;28;20038;-57
2021/12/23 06:09:14;;;;;;;114.90;61.53;;;;;;;-4.92;100.00;99070.50;4971178;28;20038;-56
2021/12/23 06:11:39;;;;;;;126.00;61.23;;;;;;;-5.05;100.00;99064.06;4976015;28;20026;-56
2021/12/23 06:14:04;;;;;;;121.40;60.97;;;;;;;-4.97;100.00;99070.28;4977675;28;20058;-57
2021/12/23 06:16:30;;;;;;;112.17;55.33;;;;;;;-5.04;100.00;99085.75;4974417;28;20548;-57
2021/12/23 06:18:55;;;;;;;93.37;52.83;;;;;;;-5.03;100.00;99072.47;4973163;28;20041;-57
2021/12/23 06:21:22;;;;;;;99.10;52.97;;;;;;;-5.03;100.00;99076.63;4981836;28;20073;-58
2021/12/23 06:23:48;;;;;;;116.37;57.10;;;;;;;-4.95;100.00;99073.72;4983152;28;20460;-59
2021/12/23 06:26:13;;;;;;;98.53;53.70;;;;;;;-4.94;100.00;99070.44;4976617;28;20043;-58
2021/12/23 06:28:38;;;;;;;98.07;55.90;;;;;;;-4.93;100.00;99061.28;4977972;28;20030;-58
2021/12/23 06:31:04;;;;;;;99.70;54.17;;;;;;;-4.93;100.00;99063.78;4980313;28;20026;-56
2021/12/23 06:33:29;;;;;;;107.27;56.03;;;;;;;-4.92;100.00;99061.34;4981782;28;20512;-56
2021/12/23 06:35:55;;;;;;;113.47;59.70;;;;;;;-4.96;100.00;99066.13;4979514;28;20042;-58
2021/12/23 06:38:20;;;;;;;107.63;55.90;;;;;;;-4.94;100.00;99052.94;4979067;28;20030;-57
2021/12/23 06:40:46;;;;;;;110.37;57.40;;;;;;;-4.95;100.00;99047.84;4976948;28;20023;-56
2021/12/23 06:43:11;;;;;;;107.53;56.50;;;;;;;-5.00;100.00;99060.13;4977944;28;20469;-54
2021/12/23 06:45:37;;;;;;;107.60;57.23;;;;;;;-4.95;100.00;99071.22;4975945;28;20038;-55
2021/12/23 06:48:02;;;;;;;99.20;57.07;;;;;;;-4.93;100.00;99049.66;4973345;28;20035;-56
2021/12/23 06:50:28;;;;;;;148.07;65.70;;;;;;;-5.02;100.00;99054.22;4977309;28;20512;-55
2021/12/23 06:52:54;;;;;;;152.63;66.60;;;;;;;-5.02;100.00;99055.84;4978428;28;20030;-57
2021/12/23 06:55:20;;;;;;;149.00;66.23;;;;;;;-5.02;100.00;99044.22;4975200;28;20027;-54
2021/12/23 06:57:46;;;;;;;145.43;66.00;;;;;;;-5.10;100.00;99052.97;4977747;28;20031;-57
2021/12/23 07:00:17;;;;;;;139.43;64.30;;;;;;;-5.08;100.00;99052.25;4980886;28;20061;-56
2021/12/23 07:02:43;;;;;;;141.80;64.63;;;;;;;-5.17;100.00;99043.44;4984031;28;20610;-57
2021/12/23 07:05:09;;;;;;;130.10;67.40;;;;;;;-5.07;100.00;99063.97;4974452;28;20137;-57
2021/12/23 07:08:12;;;;;;;134.37;61.50;;;;;;;-5.15;100.00;99046.91;4974219;28;20030;-56
2021/12/23 07:10:28;;;;;;;140.87;63.83;;;;;;;-5.10;100.00;99042.97;4976263;28;20099;-58
2021/12/23 07:12:56;;;;;;;146.53;66.33;;;;;;;-5.10;100.00;99055.47;4975041;28;20031;-58
2021/12/23 07:15:23;;;;;;;132.13;63.27;;;;;;;-5.15;100.00;99054.38;4973805;28;20034;-56
2021/12/23 07:17:49;;;;;;;135.13;62.43;;;;;;;-5.14;100.00;99049.47;4975472;28;20039;-57
2021/12/23 07:20:15;;;;;;;144.90;64.37;;;;;;;-4.99;100.00;99046.84;4980103;28;20121;-59
2021/12/23 07:22:41;;;;;;;154.27;67.33;;;;;;;-4.93;100.00;99042.16;4976307;28;20101;-56
2021/12/23 07:25:07;;;;;;;152.80;69.10;;;;;;;-4.93;100.00;99052.16;4975507;28;20073;-57
2021/12/23 07:27:32;;;;;;;143.87;65.47;;;;;;;-4.92;100.00;99038.03;4979261;28;20105;-58
2021/12/23 07:29:58;;;;;;;151.73;65.43;;;;;;;-4.84;100.00;99044.25;4980318;28;20026;-58
2021/12/23 07:32:23;;;;;;;141.57;62.87;;;;;;;-4.87;100.00;99044.94;4980213;28;20381;-58
2021/12/23 07:34:49;;;;;;;141.53;66.47;;;;;;;-4.90;100.00;99049.78;4976077;28;20045;-58
2021/12/23 07:37:14;;;;;;;140.17;65.10;;;;;;;-4.93;100.00;99052.16;4980160;28;20037;-57
2021/12/23 07:39:40;;;;;;;139.90;95.27;;;;;;;-4.99;100.00;99051.84;4983148;28;20034;-57
2021/12/23 07:42:07;;;;;;;147.87;97.60;;;;;;;-5.00;100.00;99051.75;4971373;28;20034;-57
2021/12/23 07:44:35;;;;;;;138.63;63.50;;;;;;;-4.79;100.00;99047.78;4981315;28;20030;-57
2021/12/23 07:47:02;;;;;;;144.03;63.07;;;;;;;-4.79;100.00;99052.78;4982080;28;20026;-58
2021/12/23 07:49:28;;;;;;;145.20;63.93;;;;;;;-4.70;100.00;99031.59;4984884;28;20042;-57
2021/12/23 07:51:54;;;;;;;137.10;63.57;;;;;;;-4.73;100.00;99030.59;4976502;28;20609;-58
2021/12/23 07:54:20;;;;;;;131.73;63.40;;;;;;;-4.66;100.00;99035.94;4976755;28;20110;-57
2021/12/23 07:56:47;;;;;;;139.43;66.40;;;;;;;-4.81;100.00;99052.75;4978526;28;20141;-58
2021/12/23 07:59:13;;;;;;;134.83;64.67;;;;;;;-4.92;100.00;99061.34;4978249;28;20066;-58
2021/12/23 08:01:38;;;;;;;138.53;66.33;;;;;;;-5.05;100.00;99040.72;4974352;28;20515;-57
2021/12/23 08:04:04;;;;;;;155.20;68.27;;;;;;;-4.99;100.00;99044.34;4971580;28;20771;-57
2021/12/23 08:06:29;;;;;;;146.13;65.63;;;;;;;-5.03;100.00;99044.13;4976096;28;20125;-58
2021/12/23 08:08:55;;;;;;;143.83;67.00;;;;;;;-4.90;100.00;99036.44;4976750;28;20038;-58
2021/12/23 08:11:21;;;;;;;140.93;66.57;;;;;;;-5.05;100.00;99035.72;4972494;28;20069;-58
2021/12/23 08:13:46;;;;;;;133.77;65.13;;;;;;;-4.96;100.00;99036.13;4973242;28;20073;-54
2021/12/23 08:16:12;;;;;;;147.90;67.73;;;;;;;-4.91;100.00;99012.22;4976301;28;20030;-59
2021/12/23 08:18:37;;;;;;;150.80;69.20;;;;;;;-4.88;100.00;99014.88;4974876;28;20046;-57
2021/12/23 08:21:03;;;;;;;136.77;66.33;;;;;;;-4.85;100.00;99023.38;4976868;28;20452;-59
2021/12/23 08:23:29;;;;;;;137.13;66.07;;;;;;;-4.78;100.00;99017.88;4976100;28;20039;-57
2021/12/23 08:25:59;;;;;;;133.70;63.07;;;;;;;-4.64;100.00;99013.53;4972522;28;20495;-58
2021/12/23 08:28:24;;;;;;;152.57;69.90;;;;;;;-4.50;100.00;99014.16;4974134;28;20108;-57
2021/12/23 08:30:49;;;;;;;139.87;68.17;;;;;;;-4.41;100.00;99007.91;4974784;28;20027;-56
2021/12/23 08:33:15;;;;;;;135.97;64.90;;;;;;;-4.53;100.00;99004.00;4975172;28;20096;-57
2021/12/23 08:35:40;;;;;;;143.23;64.57;;;;;;;-4.51;100.00;99015.81;4978195;28;20112;-55
2021/12/23 08:38:07;;;;;;;144.97;67.10;;;;;;;-4.47;100.00;99031.81;4977144;28;20038;-55
2021/12/23 08:40:34;;;;;;;156.90;72.97;;;;;;;-4.57;100.00;99019.66;4971868;28;20037;-58
2021/12/23 08:42:59;;;;;;;150.97;67.63;;;;;;;-4.44;100.00;99011.91;4976436;28;20644;-58
2021/12/23 08:45:26;;;;;;;148.93;68.47;;;;;;;-4.36;100.00;99014.00;4979137;28;20046;-58
2021/12/23 08:47:54;;;;;;;151.40;68.93;;;;;;;-4.18;100.00;99014.81;4973524;28;20026;-57
2021/12/23 08:50:21;;;;;;;148.57;67.70;;;;;;;-4.16;100.00;99008.22;4973655;28;20922;-54
2021/12/23 08:52:48;;;;;;;171.73;71.97;;;;;;;-4.28;100.00;98994.31;4978623;28;20031;-56
2021/12/23 08:55:14;;;;;;;160.60;69.40;;;;;;;-4.02;100.00;98983.81;4972946;28;20041;-56
2021/12/23 08:57:40;;;;;;;137.23;67.40;;;;;;;-3.81;100.00;98989.75;4971487;28;20034;-56
2021/12/23 09:00:11;;;;;;;99.67;58.10;;;;;;;-3.89;100.00;99001.06;4971989;28;20062;-56
2021/12/23 09:02:37;;;;;;;100.73;56.77;;;;;;;-3.90;100.00;98998.50;4978898;28;20532;-55
2021/12/23 09:05:04;;;;;;;149.00;69.07;;;;;;;-3.80;100.00;99003.97;4972792;28;20050;-59
2021/12/23 09:07:31;;;;;;;174.50;75.13;;;;;;;-3.87;100.00;98997.00;4973268;28;20130;-57
2021/12/23 09:09:56;;;;;;;153.37;69.47;;;;;;;-3.83;100.00;98993.84;4971480;28;20035;-57
2021/12/23 09:12:23;;;;;;;165.87;72.47;;;;;;;-3.74;100.00;98991.72;4976282;28;20055;-58
2021/12/23 09:14:49;;;;;;;162.97;70.90;;;;;;;-3.62;100.00;98983.00;4974383;28;20027;-57
2021/12/23 09:17:15;;;;;;;156.23;68.80;;;;;;;-3.71;100.00;98976.81;4971781;28;20047;-56
2021/12/23 09:19:41;;;;;;;156.60;71.30;;;;;;;-3.78;100.00;98974.84;4975422;28;20026;-55
2021/12/23 09:22:06;;;;;;;149.17;67.80;;;;;;;-3.77;100.00;98969.03;4976717;28;20587;-56
2021/12/23 09:24:33;;;;;;;148.13;66.50;;;;;;;-3.52;100.00;98972.59;4977275;28;20038;-55
2021/12/23 09:27:10;;;;;;;127.97;63.67;;;;;;;-3.27;100.00;98958.59;4975167;28;20038;-58
2021/12/23 09:34:48;;;;;;;208.33;86.07;;;;;;;-3.52;100.00;98967.59;4973635;28;21131;-59
2021/12/23 09:37:14;;;;;;;195.43;79.97;;;;;;;-3.40;100.00;98958.06;4971013;28;20145;-58
2021/12/23 09:39:40;;;;;;;182.20;75.57;;;;;;;-3.28;100.00;98951.03;4970376;28;20022;-59
2021/12/23 09:42:06;;;;;;;176.50;76.80;;;;;;;-3.03;100.00;98946.19;4974283;28;20647;-57
2021/12/23 09:44:32;;;;;;;161.83;75.97;;;;;;;-2.80;100.00;98942.91;4973120;28;20103;-56
2021/12/23 09:47:02;;;;;;;161.07;74.00;;;;;;;-2.76;100.00;98936.38;4970600;28;20050;-58
2021/12/23 09:49:30;;;;;;;148.20;70.23;;;;;;;-2.54;100.00;98933.84;4971703;28;20057;-59
2021/12/23 09:51:56;;;;;;;133.67;68.13;;;;;;;-2.47;100.00;98928.28;4974215;28;20659;-58
2021/12/23 09:54:25;;;;;;;129.27;70.93;;;;;;;-2.34;100.00;98935.47;4970323;28;20093;-57
2021/12/23 09:56:54;;;;;;;179.63;80.67;;;;;;;-2.17;100.00;98927.66;4973133;28;20045;-59
2021/12/23 09:59:26;;;;;;;178.40;79.83;;;;;;;-2.04;100.00;98928.16;4976536;28;20053;-56
2021/12/23 10:01:51;;;;;;;172.60;76.33;;;;;;;-1.95;100.00;98913.38;4963188;28;20066;-58
2021/12/23 10:04:17;;;;;;;164.73;75.80;;;;;;;-1.96;100.00;98906.69;4972732;28;20047;-58
2021/12/23 10:06:42;;;;;;;160.03;77.37;;;;;;;-1.78;100.00;98915.66;4975292;28;20670;-58
2021/12/23 10:09:08;;;;;;;124.67;66.27;;;;;;;-1.67;100.00;98920.22;4975368;28;20027;-58
2021/12/23 10:31:09;;;;;;;149.17;79.63;;;;;;;-1.55;100.00;98872.88;4963534;28;20043;-61
2021/12/23 10:38:40;;;;;;;180.27;80.87;;;;;;;-1.33;100.00;98860.97;4962574;28;20034;-60
2021/12/23 10:41:13;;;;;;;174.97;80.00;;;;;;;-1.24;100.00;98844.53;4962532;28;20049;-59
2021/12/23 10:44:01;;;;;;;160.40;78.07;;;;;;;-1.23;100.00;98848.72;4960100;28;20065;-59
2021/12/23 10:46:30;;;;;;;174.73;80.47;;;;;;;-1.29;100.00;98847.69;4962706;28;20031;-62
2021/12/23 10:49:32;;;;;;;159.93;77.80;;;;;;;-1.29;100.00;98838.50;4963445;28;20126;-62
2021/12/23 10:52:09;;;;;;;175.13;82.00;;;;;;;-1.43;100.00;98833.03;4970769;28;20076;-61
2021/12/23 11:00:19;;;;;;;175.00;81.10;;;;;;;-1.44;100.00;98838.84;4974538;28;20614;-60
2021/12/23 11:03:05;;;;;;;179.10;80.33;;;;;;;-1.21;100.00;98831.19;4960324;28;20476;-60
2021/12/23 11:05:36;;;;;;;164.93;79.83;;;;;;;-1.10;100.00;98833.19;4978482;28;20054;-61
2021/12/23 11:10:56;;;;;;;176.63;82.33;;;;;;;-0.87;100.00;98825.47;4971932;28;20038;-62
2021/12/23 11:38:30;;;;;;;220.97;98.03;;;;;;;-0.97;100.00;98763.97;4972432;28;20027;-58
2021/12/23 11:41:00;;;;;;;226.53;92.23;;;;;;;-0.99;100.00;98753.88;4973837;28;20019;-59
2021/12/23 11:43:49;;;;;;;243.00;93.70;;;;;;;-0.81;100.00;98748.50;4974860;28;20465;-59
2021/12/23 11:46:18;;;;;;;247.03;110.50;;;;;;;-0.81;100.00;98743.47;4975923;28;20138;-57
2021/12/23 11:48:46;;;;;;;238.43;94.67;;;;;;;-1.05;100.00;98747.81;4975291;28;20038;-58
2021/12/23 11:51:19;;;;;;;233.67;96.97;;;;;;;-1.05;100.00;98733.56;4974667;28;20030;-59
2021/12/23 11:53:48;;;;;;;242.33;93.70;;;;;;;-0.96;100.00;98718.75;4978648;28;20070;-60
2021/12/23 11:56:16;;;;;;;234.20;93.87;;;;;;;-0.96;100.00;98716.22;4977763;28;20035;-56
2021/12/23 11:58:44;;;;;;;250.00;102.77;;;;;;;-0.87;100.00;98733.22;4974091;28;20054;-57
2021/12/23 12:01:15;;;;;;;264.83;100.37;;;;;;;-1.23;100.00;98730.53;4975869;28;20524;-57
2021/12/23 12:04:01;;;;;;;266.40;98.77;;;;;;;-1.40;100.00;98714.94;4976363;28;20081;-56
2021/12/23 12:06:35;;;;;;;257.13;96.68;;;;;;;-1.18;100.00;98703.84;4974663;28;20616;-61
2021/12/23 12:09:31;;;;;;;245.07;93.97;;;;;;;-1.01;100.00;98695.09;4972251;28;20118;-62